sensor_id;sensor_type;location;lat;lon;timestamp;temperature;humidity
49441;DHT22;35317;51.978;6.296;2022-10-18T00:02:52;15.60;99.90
49441;DHT22;35317;51.978;6.296;2022-10-18T00:07:53;15.70;99.90
49441;DHT22;35317;51.978;6.296;2022-10-18T00:12:53;15.70;99.90
49441;DHT22;35317;51.978;6.296;2022-10-18T00:17:54;15.70;99.90
49441;DHT22;35317;51.978;6.296;2022-10-18T00:22:55;15.70;99.90
49441;DHT22;35317;51.978;6.296;2022-10-18T00:27:56;15.70;99.90
49441;DHT22;35317;51.978;6.296;2022-10-18T00:32:57;15.70;99.90
49441;DHT22;35317;51.978;6.296;2022-10-18T00:37:57;15.70;99.90
49441;DHT22;35317;51.978;6.296;2022-10-18T00:42:58;15.60;99.90
49441;DHT22;35317;51.978;6.296;2022-10-18T00:48:01;15.60;99.90
49441;DHT22;35317;51.978;6.296;2022-10-18T00:53:07;15.50;99.90
49441;DHT22;35317;51.978;6.296;2022-10-18T00:58:13;15.50;99.90
49441;DHT22;35317;51.978;6.296;2022-10-18T01:03:14;15.40;99.90
49441;DHT22;35317;51.978;6.296;2022-10-18T01:08:29;15.40;99.90
49441;DHT22;35317;51.978;6.296;2022-10-18T01:13:55;15.30;99.90
49441;DHT22;35317;51.978;6.296;2022-10-18T01:35:30;15.20;99.90
49441;DHT22;35317;51.978;6.296;2022-10-18T01:40:34;15.20;99.90
49441;DHT22;35317;51.978;6.296;2022-10-18T01:45:36;15.20;99.90
49441;DHT22;35317;51.978;6.296;2022-10-18T01:50:36;15.20;99.90
49441;DHT22;35317;51.978;6.296;2022-10-18T01:55:43;15.20;99.90
49441;DHT22;35317;51.978;6.296;2022-10-18T02:00:48;15.20;99.90
49441;DHT22;35317;51.978;6.296;2022-10-18T02:06:30;15.10;99.90
49441;DHT22;35317;51.978;6.296;2022-10-18T02:11:29;15.20;99.90
49441;DHT22;35317;51.978;6.296;2022-10-18T02:16:38;15.20;99.90
49441;DHT22;35317;51.978;6.296;2022-10-18T02:21:42;15.30;99.90
49441;DHT22;35317;51.978;6.296;2022-10-18T02:26:43;15.30;99.90
49441;DHT22;35317;51.978;6.296;2022-10-18T02:31:47;15.40;99.90
49441;DHT22;35317;51.978;6.296;2022-10-18T02:37:02;15.40;99.90
49441;DHT22;35317;51.978;6.296;2022-10-18T02:42:05;15.40;99.90
49441;DHT22;35317;51.978;6.296;2022-10-18T02:47:08;15.40;99.90
49441;DHT22;35317;51.978;6.296;2022-10-18T02:52:10;15.40;99.90
49441;DHT22;35317;51.978;6.296;2022-10-18T02:57:10;15.40;99.90
49441;DHT22;35317;51.978;6.296;2022-10-18T03:02:11;15.50;99.90
49441;DHT22;35317;51.978;6.296;2022-10-18T03:07:12;15.50;99.90
49441;DHT22;35317;51.978;6.296;2022-10-18T03:12:13;15.40;99.90
49441;DHT22;35317;51.978;6.296;2022-10-18T03:17:13;15.40;99.90
49441;DHT22;35317;51.978;6.296;2022-10-18T03:22:14;15.30;99.90
49441;DHT22;35317;51.978;6.296;2022-10-18T03:27:15;15.30;99.90
49441;DHT22;35317;51.978;6.296;2022-10-18T03:32:16;15.30;99.90
49441;DHT22;35317;51.978;6.296;2022-10-18T03:37:16;15.30;99.90
49441;DHT22;35317;51.978;6.296;2022-10-18T03:42:17;15.30;99.90
49441;DHT22;35317;51.978;6.296;2022-10-18T03:47:18;15.30;99.90
49441;DHT22;35317;51.978;6.296;2022-10-18T03:52:19;15.30;99.90
49441;DHT22;35317;51.978;6.296;2022-10-18T03:57:19;15.30;99.90
49441;DHT22;35317;51.978;6.296;2022-10-18T04:02:20;15.20;99.90
49441;DHT22;35317;51.978;6.296;2022-10-18T04:07:21;15.20;99.90
49441;DHT22;35317;51.978;6.296;2022-10-18T04:12:22;15.20;99.90
49441;DHT22;35317;51.978;6.296;2022-10-18T04:17:22;15.20;99.90
49441;DHT22;35317;51.978;6.296;2022-10-18T04:22:23;15.20;99.90
49441;DHT22;35317;51.978;6.296;2022-10-18T04:27:25;15.20;99.90
49441;DHT22;35317;51.978;6.296;2022-10-18T04:32:25;15.30;99.90
49441;DHT22;35317;51.978;6.296;2022-10-18T04:37:28;15.30;99.90
49441;DHT22;35317;51.978;6.296;2022-10-18T04:42:29;15.30;99.90
49441;DHT22;35317;51.978;6.296;2022-10-18T04:47:29;15.40;99.90
49441;DHT22;35317;51.978;6.296;2022-10-18T04:52:30;15.40;99.90
49441;DHT22;35317;51.978;6.296;2022-10-18T04:57:31;15.40;99.90
49441;DHT22;35317;51.978;6.296;2022-10-18T05:02:32;15.30;99.90
49441;DHT22;35317;51.978;6.296;2022-10-18T05:07:33;15.30;99.90
49441;DHT22;35317;51.978;6.296;2022-10-18T05:12:33;15.30;99.90
49441;DHT22;35317;51.978;6.296;2022-10-18T05:17:34;15.30;99.90
49441;DHT22;35317;51.978;6.296;2022-10-18T05:22:35;15.30;99.90
49441;DHT22;35317;51.978;6.296;2022-10-18T05:27:36;15.20;99.90
49441;DHT22;35317;51.978;6.296;2022-10-18T05:32:36;15.20;99.90
49441;DHT22;35317;51.978;6.296;2022-10-18T05:37:37;15.20;99.90
49441;DHT22;35317;51.978;6.296;2022-10-18T05:42:38;15.20;99.90
49441;DHT22;35317;51.978;6.296;2022-10-18T05:47:38;15.20;99.90
49441;DHT22;35317;51.978;6.296;2022-10-18T05:52:39;15.10;99.90
49441;DHT22;35317;51.978;6.296;2022-10-18T05:57:40;15.10;99.90
49441;DHT22;35317;51.978;6.296;2022-10-18T06:02:41;15.10;99.90
49441;DHT22;35317;51.978;6.296;2022-10-18T06:07:41;15.10;99.90
49441;DHT22;35317;51.978;6.296;2022-10-18T06:12:42;15.10;99.90
49441;DHT22;35317;51.978;6.296;2022-10-18T06:17:43;15.00;99.90
49441;DHT22;35317;51.978;6.296;2022-10-18T06:22:43;15.00;99.90
49441;DHT22;35317;51.978;6.296;2022-10-18T06:27:44;15.00;99.90
49441;DHT22;35317;51.978;6.296;2022-10-18T06:32:45;15.00;99.90
49441;DHT22;35317;51.978;6.296;2022-10-18T06:37:46;14.90;99.90
49441;DHT22;35317;51.978;6.296;2022-10-18T06:42:47;14.90;99.90
49441;DHT22;35317;51.978;6.296;2022-10-18T06:47:49;14.90;99.90
49441;DHT22;35317;51.978;6.296;2022-10-18T06:52:53;14.90;99.90
49441;DHT22;35317;51.978;6.296;2022-10-18T06:57:53;14.90;99.90
49441;DHT22;35317;51.978;6.296;2022-10-18T07:02:55;14.90;99.90
49441;DHT22;35317;51.978;6.296;2022-10-18T07:07:59;15.00;99.90
49441;DHT22;35317;51.978;6.296;2022-10-18T07:13:00;15.00;99.90
49441;DHT22;35317;51.978;6.296;2022-10-18T07:18:01;15.00;99.90
49441;DHT22;35317;51.978;6.296;2022-10-18T07:23:02;15.00;99.90
49441;DHT22;35317;51.978;6.296;2022-10-18T07:28:04;15.00;99.90
49441;DHT22;35317;51.978;6.296;2022-10-18T07:33:05;15.00;99.90
49441;DHT22;35317;51.978;6.296;2022-10-18T07:38:06;15.00;99.90
49441;DHT22;35317;51.978;6.296;2022-10-18T07:43:07;15.10;99.90
49441;DHT22;35317;51.978;6.296;2022-10-18T07:48:07;15.10;99.90
49441;DHT22;35317;51.978;6.296;2022-10-18T07:53:08;15.10;99.90
49441;DHT22;35317;51.978;6.296;2022-10-18T07:58:09;15.20;99.90
49441;DHT22;35317;51.978;6.296;2022-10-18T08:03:10;15.30;99.90
49441;DHT22;35317;51.978;6.296;2022-10-18T08:08:11;15.30;99.90
49441;DHT22;35317;51.978;6.296;2022-10-18T08:13:12;15.30;99.90
49441;DHT22;35317;51.978;6.296;2022-10-18T08:18:13;15.30;99.90
49441;DHT22;35317;51.978;6.296;2022-10-18T08:23:14;15.20;99.90
49441;DHT22;35317;51.978;6.296;2022-10-18T08:28:14;15.30;99.90
49441;DHT22;35317;51.978;6.296;2022-10-18T08:33:16;15.30;99.90
49441;DHT22;35317;51.978;6.296;2022-10-18T08:38:17;15.20;99.90
49441;DHT22;35317;51.978;6.296;2022-10-18T08:43:38;15.20;99.90
49441;DHT22;35317;51.978;6.296;2022-10-18T08:48:46;15.30;99.90
49441;DHT22;35317;51.978;6.296;2022-10-18T08:53:58;15.30;99.90
49441;DHT22;35317;51.978;6.296;2022-10-18T08:59:10;15.20;99.90
49441;DHT22;35317;51.978;6.296;2022-10-18T09:10:21;15.20;99.90
49441;DHT22;35317;51.978;6.296;2022-10-18T09:15:54;15.20;99.90
49441;DHT22;35317;51.978;6.296;2022-10-18T09:26:30;15.20;99.90
49441;DHT22;35317;51.978;6.296;2022-10-18T09:31:43;15.20;99.90
49441;DHT22;35317;51.978;6.296;2022-10-18T09:36:50;15.20;99.90
49441;DHT22;35317;51.978;6.296;2022-10-18T09:46:59;15.30;99.90
49441;DHT22;35317;51.978;6.296;2022-10-18T09:52:06;15.40;99.90
49441;DHT22;35317;51.978;6.296;2022-10-18T10:02:31;15.50;99.90
49441;DHT22;35317;51.978;6.296;2022-10-18T10:07:34;15.60;99.90
49441;DHT22;35317;51.978;6.296;2022-10-18T10:12:44;15.70;99.90
49441;DHT22;35317;51.978;6.296;2022-10-18T10:18:14;15.80;99.90
49441;DHT22;35317;51.978;6.296;2022-10-18T10:23:25;15.90;99.90
49441;DHT22;35317;51.978;6.296;2022-10-18T10:28:30;15.90;99.90
49441;DHT22;35317;51.978;6.296;2022-10-18T10:33:36;16.00;99.90
49441;DHT22;35317;51.978;6.296;2022-10-18T10:38:37;16.00;99.80
49441;DHT22;35317;51.978;6.296;2022-10-18T10:43:38;16.10;99.20
49441;DHT22;35317;51.978;6.296;2022-10-18T10:48:55;16.10;99.00
49441;DHT22;35317;51.978;6.296;2022-10-18T10:53:59;16.20;97.90
49441;DHT22;35317;51.978;6.296;2022-10-18T10:59:22;16.30;96.90
49441;DHT22;35317;51.978;6.296;2022-10-18T11:04:28;16.40;96.80
49441;DHT22;35317;51.978;6.296;2022-10-18T11:15:21;16.60;96.00
49441;DHT22;35317;51.978;6.296;2022-10-18T11:20:30;16.70;95.40
49441;DHT22;35317;51.978;6.296;2022-10-18T11:26:02;16.90;94.90
49441;DHT22;35317;51.978;6.296;2022-10-18T11:47:48;17.40;92.30
49441;DHT22;35317;51.978;6.296;2022-10-18T11:59:14;17.60;90.30
49441;DHT22;35317;51.978;6.296;2022-10-18T12:04:13;17.60;88.90
49441;DHT22;35317;51.978;6.296;2022-10-18T12:09:39;17.70;89.00
49441;DHT22;35317;51.978;6.296;2022-10-18T12:14:50;18.00;86.90
49441;DHT22;35317;51.978;6.296;2022-10-18T12:19:55;18.40;85.70
49441;DHT22;35317;51.978;6.296;2022-10-18T12:24:58;18.80;83.80
49441;DHT22;35317;51.978;6.296;2022-10-18T12:30:13;19.20;78.90
49441;DHT22;35317;51.978;6.296;2022-10-18T12:35:22;19.60;76.20
49441;DHT22;35317;51.978;6.296;2022-10-18T12:45:57;20.10;72.50
49441;DHT22;35317;51.978;6.296;2022-10-18T12:51:16;20.40;70.70
49441;DHT22;35317;51.978;6.296;2022-10-18T12:56:42;20.70;69.00
49441;DHT22;35317;51.978;6.296;2022-10-18T13:17:30;21.50;65.60
49441;DHT22;35317;51.978;6.296;2022-10-18T13:23:00;21.60;62.60
49441;DHT22;35317;51.978;6.296;2022-10-18T13:28:35;21.70;60.50
49441;DHT22;35317;51.978;6.296;2022-10-18T13:33:40;21.80;59.90
49441;DHT22;35317;51.978;6.296;2022-10-18T13:50:03;21.70;59.60
49441;DHT22;35317;51.978;6.296;2022-10-18T14:01:02;21.80;60.90
49441;DHT22;35317;51.978;6.296;2022-10-18T14:06:21;21.90;60.60
49441;DHT22;35317;51.978;6.296;2022-10-18T14:11:42;21.90;60.80
49441;DHT22;35317;51.978;6.296;2022-10-18T14:22:50;22.10;59.60
49441;DHT22;35317;51.978;6.296;2022-10-18T14:28:19;22.20;59.20
49441;DHT22;35317;51.978;6.296;2022-10-18T14:33:38;22.10;58.70
49441;DHT22;35317;51.978;6.296;2022-10-18T14:38:50;22.00;59.70
49441;DHT22;35317;51.978;6.296;2022-10-18T14:44:13;22.00;59.90
49441;DHT22;35317;51.978;6.296;2022-10-18T14:49:20;21.90;60.00
49441;DHT22;35317;51.978;6.296;2022-10-18T14:54:32;21.70;60.10
49441;DHT22;35317;51.978;6.296;2022-10-18T14:59:44;21.50;61.10
49441;DHT22;35317;51.978;6.296;2022-10-18T15:05:04;21.00;60.60
49441;DHT22;35317;51.978;6.296;2022-10-18T15:10:31;20.60;59.90
49441;DHT22;35317;51.978;6.296;2022-10-18T15:15:32;20.10;60.60
49441;DHT22;35317;51.978;6.296;2022-10-18T15:20:36;19.70;61.10
49441;DHT22;35317;51.978;6.296;2022-10-18T15:25:42;19.30;62.40
49441;DHT22;35317;51.978;6.296;2022-10-18T15:30:42;18.90;63.50
49441;DHT22;35317;51.978;6.296;2022-10-18T15:35:43;18.60;66.80
49441;DHT22;35317;51.978;6.296;2022-10-18T15:40:44;18.20;68.50
49441;DHT22;35317;51.978;6.296;2022-10-18T15:45:45;17.90;70.50
49441;DHT22;35317;51.978;6.296;2022-10-18T15:50:58;17.70;71.80
49441;DHT22;35317;51.978;6.296;2022-10-18T15:56:29;17.40;74.20
49441;DHT22;35317;51.978;6.296;2022-10-18T16:01:41;17.20;75.90
49441;DHT22;35317;51.978;6.296;2022-10-18T16:06:43;16.90;76.30
49441;DHT22;35317;51.978;6.296;2022-10-18T16:11:44;16.70;77.60
49441;DHT22;35317;51.978;6.296;2022-10-18T16:16:45;16.40;78.80
49441;DHT22;35317;51.978;6.296;2022-10-18T16:21:46;16.20;79.60
49441;DHT22;35317;51.978;6.296;2022-10-18T16:26:47;16.00;80.60
49441;DHT22;35317;51.978;6.296;2022-10-18T16:31:49;15.70;81.00
49441;DHT22;35317;51.978;6.296;2022-10-18T16:36:53;15.50;81.20
49441;DHT22;35317;51.978;6.296;2022-10-18T16:41:54;15.30;82.30
49441;DHT22;35317;51.978;6.296;2022-10-18T16:46:55;15.00;83.50
49441;DHT22;35317;51.978;6.296;2022-10-18T16:51:55;14.80;84.40
49441;DHT22;35317;51.978;6.296;2022-10-18T16:56:56;14.50;85.30
49441;DHT22;35317;51.978;6.296;2022-10-18T17:01:57;14.20;86.20
49441;DHT22;35317;51.978;6.296;2022-10-18T17:07:02;14.00;87.10
49441;DHT22;35317;51.978;6.296;2022-10-18T17:12:04;13.70;88.10
49441;DHT22;35317;51.978;6.296;2022-10-18T17:17:07;13.50;88.80
49441;DHT22;35317;51.978;6.296;2022-10-18T17:22:10;13.30;90.00
49441;DHT22;35317;51.978;6.296;2022-10-18T17:27:11;13.10;90.30
49441;DHT22;35317;51.978;6.296;2022-10-18T17:32:12;12.90;91.00
49441;DHT22;35317;51.978;6.296;2022-10-18T17:37:13;12.80;91.10
49441;DHT22;35317;51.978;6.296;2022-10-18T17:42:13;12.60;91.50
49441;DHT22;35317;51.978;6.296;2022-10-18T17:47:14;12.40;91.90
49441;DHT22;35317;51.978;6.296;2022-10-18T17:52:15;12.30;92.30
49441;DHT22;35317;51.978;6.296;2022-10-18T17:57:16;12.10;92.70
49441;DHT22;35317;51.978;6.296;2022-10-18T18:02:17;12.00;93.10
49441;DHT22;35317;51.978;6.296;2022-10-18T18:07:18;11.80;93.60
49441;DHT22;35317;51.978;6.296;2022-10-18T18:12:19;11.70;94.00
49441;DHT22;35317;51.978;6.296;2022-10-18T18:17:19;11.60;94.30
49441;DHT22;35317;51.978;6.296;2022-10-18T18:22:20;11.50;94.70
49441;DHT22;35317;51.978;6.296;2022-10-18T18:27:21;11.40;95.00
49441;DHT22;35317;51.978;6.296;2022-10-18T18:32:21;11.30;95.30
49441;DHT22;35317;51.978;6.296;2022-10-18T18:37:22;11.10;95.50
49441;DHT22;35317;51.978;6.296;2022-10-18T18:42:23;11.10;95.70
49441;DHT22;35317;51.978;6.296;2022-10-18T18:47:24;10.90;95.90
49441;DHT22;35317;51.978;6.296;2022-10-18T18:52:26;10.90;96.20
49441;DHT22;35317;51.978;6.296;2022-10-18T18:57:27;10.70;96.30
49441;DHT22;35317;51.978;6.296;2022-10-18T19:02:27;10.70;96.60
49441;DHT22;35317;51.978;6.296;2022-10-18T19:07:28;10.60;96.80
49441;DHT22;35317;51.978;6.296;2022-10-18T19:12:29;10.50;97.00
49441;DHT22;35317;51.978;6.296;2022-10-18T19:17:29;10.40;97.20
49441;DHT22;35317;51.978;6.296;2022-10-18T19:22:30;10.30;97.40
49441;DHT22;35317;51.978;6.296;2022-10-18T19:27:31;10.20;97.60
49441;DHT22;35317;51.978;6.296;2022-10-18T19:32:32;10.10;97.80
49441;DHT22;35317;51.978;6.296;2022-10-18T19:37:32;10.00;98.10
49441;DHT22;35317;51.978;6.296;2022-10-18T19:42:33;10.00;98.30
49441;DHT22;35317;51.978;6.296;2022-10-18T19:47:35;9.90;98.40
49441;DHT22;35317;51.978;6.296;2022-10-18T19:52:37;9.80;98.50
49441;DHT22;35317;51.978;6.296;2022-10-18T19:57:38;9.80;98.70
49441;DHT22;35317;51.978;6.296;2022-10-18T20:02:39;9.70;98.80
49441;DHT22;35317;51.978;6.296;2022-10-18T20:07:39;9.70;99.00
49441;DHT22;35317;51.978;6.296;2022-10-18T20:12:41;9.50;99.10
49441;DHT22;35317;51.978;6.296;2022-10-18T20:17:42;9.50;99.40
49441;DHT22;35317;51.978;6.296;2022-10-18T20:22:43;9.40;99.40
49441;DHT22;35317;51.978;6.296;2022-10-18T20:27:43;9.40;99.60
49441;DHT22;35317;51.978;6.296;2022-10-18T20:32:44;9.30;99.60
49441;DHT22;35317;51.978;6.296;2022-10-18T20:37:45;9.20;99.80
49441;DHT22;35317;51.978;6.296;2022-10-18T20:42:47;9.10;99.80
49441;DHT22;35317;51.978;6.296;2022-10-18T20:47:48;9.00;99.90
49441;DHT22;35317;51.978;6.296;2022-10-18T20:52:48;9.00;99.90
49441;DHT22;35317;51.978;6.296;2022-10-18T20:57:50;8.90;99.90
49441;DHT22;35317;51.978;6.296;2022-10-18T21:02:51;8.80;99.90
49441;DHT22;35317;51.978;6.296;2022-10-18T21:07:52;8.80;99.90
49441;DHT22;35317;51.978;6.296;2022-10-18T21:12:52;8.70;99.90
49441;DHT22;35317;51.978;6.296;2022-10-18T21:17:53;8.70;99.90
49441;DHT22;35317;51.978;6.296;2022-10-18T21:22:54;8.60;99.90
49441;DHT22;35317;51.978;6.296;2022-10-18T21:27:56;8.60;99.90
49441;DHT22;35317;51.978;6.296;2022-10-18T21:32:57;8.50;99.90
49441;DHT22;35317;51.978;6.296;2022-10-18T21:37:58;8.40;99.90
49441;DHT22;35317;51.978;6.296;2022-10-18T21:42:58;8.40;99.90
49441;DHT22;35317;51.978;6.296;2022-10-18T21:47:59;8.30;99.90
49441;DHT22;35317;51.978;6.296;2022-10-18T21:53:00;8.30;99.90
49441;DHT22;35317;51.978;6.296;2022-10-18T21:58:00;8.20;99.90
49441;DHT22;35317;51.978;6.296;2022-10-18T22:03:07;8.10;99.90
49441;DHT22;35317;51.978;6.296;2022-10-18T22:08:08;8.10;99.90
49441;DHT22;35317;51.978;6.296;2022-10-18T22:13:08;8.10;99.90
49441;DHT22;35317;51.978;6.296;2022-10-18T22:18:09;8.00;99.90
49441;DHT22;35317;51.978;6.296;2022-10-18T22:23:10;7.90;99.90
49441;DHT22;35317;51.978;6.296;2022-10-18T22:28:12;7.90;99.90
49441;DHT22;35317;51.978;6.296;2022-10-18T22:33:13;7.80;99.90
49441;DHT22;35317;51.978;6.296;2022-10-18T22:38:13;7.80;99.90
49441;DHT22;35317;51.978;6.296;2022-10-18T22:43:14;7.70;99.90
49441;DHT22;35317;51.978;6.296;2022-10-18T22:48:15;7.70;99.90
49441;DHT22;35317;51.978;6.296;2022-10-18T22:53:15;7.60;99.90
49441;DHT22;35317;51.978;6.296;2022-10-18T22:58:16;7.60;99.90
49441;DHT22;35317;51.978;6.296;2022-10-18T23:03:18;7.50;99.90
49441;DHT22;35317;51.978;6.296;2022-10-18T23:08:18;7.50;99.90
49441;DHT22;35317;51.978;6.296;2022-10-18T23:13:19;7.40;99.90
49441;DHT22;35317;51.978;6.296;2022-10-18T23:18:21;7.40;99.90
49441;DHT22;35317;51.978;6.296;2022-10-18T23:23:22;7.40;99.90
49441;DHT22;35317;51.978;6.296;2022-10-18T23:28:22;7.30;99.90
49441;DHT22;35317;51.978;6.296;2022-10-18T23:33:23;7.30;99.90
49441;DHT22;35317;51.978;6.296;2022-10-18T23:38:24;7.30;99.90
49441;DHT22;35317;51.978;6.296;2022-10-18T23:43:24;7.30;99.90
49441;DHT22;35317;51.978;6.296;2022-10-18T23:48:25;7.20;99.90
49441;DHT22;35317;51.978;6.296;2022-10-18T23:53:26;7.20;99.90
49441;DHT22;35317;51.978;6.296;2022-10-18T23:58:29;7.10;99.90
